sensor_id;sensor_type;location;lat;lon;timestamp;P1;durP1;ratioP1;P2;durP2;ratioP2
50803;SDS011;37205;51.434;6.756;2024-01-10T00:01:59;14.63;;;6.80;;
50803;SDS011;37205;51.434;6.756;2024-01-10T00:04:24;11.93;;;6.25;;
50803;SDS011;37205;51.434;6.756;2024-01-10T00:06:50;12.73;;;5.85;;
50803;SDS011;37205;51.434;6.756;2024-01-10T00:09:16;11.70;;;5.97;;
50803;SDS011;37205;51.434;6.756;2024-01-10T00:11:41;9.52;;;5.60;;
50803;SDS011;37205;51.434;6.756;2024-01-10T00:14:07;11.30;;;6.40;;
50803;SDS011;37205;51.434;6.756;2024-01-10T00:16:32;11.60;;;6.32;;
50803;SDS011;37205;51.434;6.756;2024-01-10T00:18:58;12.40;;;6.72;;
50803;SDS011;37205;51.434;6.756;2024-01-10T00:21:23;12.40;;;6.47;;
50803;SDS011;37205;51.434;6.756;2024-01-10T00:23:49;10.48;;;6.40;;
50803;SDS011;37205;51.434;6.756;2024-01-10T00:26:14;14.98;;;6.00;;
50803;SDS011;37205;51.434;6.756;2024-01-10T00:28:40;10.40;;;5.53;;
50803;SDS011;37205;51.434;6.756;2024-01-10T00:31:06;11.30;;;5.97;;
50803;SDS011;37205;51.434;6.756;2024-01-10T00:33:31;12.88;;;5.97;;
50803;SDS011;37205;51.434;6.756;2024-01-10T00:35:57;12.98;;;6.55;;
50803;SDS011;37205;51.434;6.756;2024-01-10T00:38:22;14.32;;;6.47;;
50803;SDS011;37205;51.434;6.756;2024-01-10T00:40:48;11.77;;;5.70;;
50803;SDS011;37205;51.434;6.756;2024-01-10T00:43:13;12.05;;;7.03;;
50803;SDS011;37205;51.434;6.756;2024-01-10T00:45:39;11.82;;;6.30;;
50803;SDS011;37205;51.434;6.756;2024-01-10T00:48:04;12.80;;;6.38;;
50803;SDS011;37205;51.434;6.756;2024-01-10T00:50:30;11.90;;;6.13;;
50803;SDS011;37205;51.434;6.756;2024-01-10T00:52:55;12.75;;;5.97;;
50803;SDS011;37205;51.434;6.756;2024-01-10T00:55:21;12.48;;;6.72;;
50803;SDS011;37205;51.434;6.756;2024-01-10T00:57:46;11.85;;;5.93;;
50803;SDS011;37205;51.434;6.756;2024-01-10T01:00:12;10.10;;;5.38;;
50803;SDS011;37205;51.434;6.756;2024-01-10T01:02:38;11.57;;;6.35;;
50803;SDS011;37205;51.434;6.756;2024-01-10T01:05:06;10.52;;;6.28;;
50803;SDS011;37205;51.434;6.756;2024-01-10T01:07:32;9.85;;;5.68;;
50803;SDS011;37205;51.434;6.756;2024-01-10T01:09:58;12.10;;;6.40;;
50803;SDS011;37205;51.434;6.756;2024-01-10T01:12:24;11.30;;;6.13;;
50803;SDS011;37205;51.434;6.756;2024-01-10T01:14:50;11.52;;;6.10;;
50803;SDS011;37205;51.434;6.756;2024-01-10T01:17:15;11.57;;;5.80;;
50803;SDS011;37205;51.434;6.756;2024-01-10T01:19:41;12.10;;;6.05;;
50803;SDS011;37205;51.434;6.756;2024-01-10T01:22:06;14.52;;;6.22;;
50803;SDS011;37205;51.434;6.756;2024-01-10T01:24:32;11.13;;;6.07;;
50803;SDS011;37205;51.434;6.756;2024-01-10T01:26:57;11.48;;;6.50;;
50803;SDS011;37205;51.434;6.756;2024-01-10T01:29:23;12.20;;;6.13;;
50803;SDS011;37205;51.434;6.756;2024-01-10T01:31:49;11.77;;;6.22;;
50803;SDS011;37205;51.434;6.756;2024-01-10T01:34:15;10.88;;;5.93;;
50803;SDS011;37205;51.434;6.756;2024-01-10T01:36:40;10.13;;;6.13;;
50803;SDS011;37205;51.434;6.756;2024-01-10T01:39:06;11.48;;;6.45;;
50803;SDS011;37205;51.434;6.756;2024-01-10T01:41:31;13.63;;;6.78;;
50803;SDS011;37205;51.434;6.756;2024-01-10T01:43:57;12.60;;;6.93;;
50803;SDS011;37205;51.434;6.756;2024-01-10T01:46:22;10.70;;;5.97;;
50803;SDS011;37205;51.434;6.756;2024-01-10T01:48:48;12.73;;;6.68;;
50803;SDS011;37205;51.434;6.756;2024-01-10T01:51:14;10.90;;;6.22;;
50803;SDS011;37205;51.434;6.756;2024-01-10T01:53:41;12.90;;;6.25;;
50803;SDS011;37205;51.434;6.756;2024-01-10T01:56:09;13.80;;;7.10;;
50803;SDS011;37205;51.434;6.756;2024-01-10T01:58:36;12.77;;;6.65;;
50803;SDS011;37205;51.434;6.756;2024-01-10T02:01:03;13.98;;;6.43;;
50803;SDS011;37205;51.434;6.756;2024-01-10T02:03:33;14.90;;;6.75;;
50803;SDS011;37205;51.434;6.756;2024-01-10T02:06:01;11.77;;;6.40;;
50803;SDS011;37205;51.434;6.756;2024-01-10T02:08:29;12.10;;;6.57;;
50803;SDS011;37205;51.434;6.756;2024-01-10T02:10:56;11.85;;;6.32;;
50803;SDS011;37205;51.434;6.756;2024-01-10T02:13:21;13.50;;;6.78;;
50803;SDS011;37205;51.434;6.756;2024-01-10T02:15:47;12.82;;;5.95;;
50803;SDS011;37205;51.434;6.756;2024-01-10T02:18:13;11.52;;;6.70;;
50803;SDS011;37205;51.434;6.756;2024-01-10T02:20:39;12.32;;;6.63;;
50803;SDS011;37205;51.434;6.756;2024-01-10T02:23:07;13.43;;;6.55;;
50803;SDS011;37205;51.434;6.756;2024-01-10T02:25:32;13.90;;;6.97;;
50803;SDS011;37205;51.434;6.756;2024-01-10T02:27:59;14.00;;;7.00;;
50803;SDS011;37205;51.434;6.756;2024-01-10T02:30:25;13.88;;;6.00;;
50803;SDS011;37205;51.434;6.756;2024-01-10T02:32:51;14.02;;;6.63;;
50803;SDS011;37205;51.434;6.756;2024-01-10T02:35:16;11.15;;;6.45;;
50803;SDS011;37205;51.434;6.756;2024-01-10T02:37:42;13.18;;;6.95;;
50803;SDS011;37205;51.434;6.756;2024-01-10T02:40:07;13.07;;;6.60;;
50803;SDS011;37205;51.434;6.756;2024-01-10T02:42:34;14.43;;;6.95;;
50803;SDS011;37205;51.434;6.756;2024-01-10T02:44:59;13.85;;;6.80;;
50803;SDS011;37205;51.434;6.756;2024-01-10T02:47:25;12.75;;;6.30;;
50803;SDS011;37205;51.434;6.756;2024-01-10T02:49:50;13.75;;;6.78;;
50803;SDS011;37205;51.434;6.756;2024-01-10T02:52:16;12.10;;;6.75;;
50803;SDS011;37205;51.434;6.756;2024-01-10T02:54:42;11.95;;;6.82;;
50803;SDS011;37205;51.434;6.756;2024-01-10T02:57:07;13.20;;;7.30;;
50803;SDS011;37205;51.434;6.756;2024-01-10T02:59:33;11.68;;;6.93;;
50803;SDS011;37205;51.434;6.756;2024-01-10T03:01:58;13.73;;;7.65;;
50803;SDS011;37205;51.434;6.756;2024-01-10T03:04:24;17.58;;;7.13;;
50803;SDS011;37205;51.434;6.756;2024-01-10T03:06:49;12.65;;;7.05;;
50803;SDS011;37205;51.434;6.756;2024-01-10T03:09:15;14.55;;;6.50;;
50803;SDS011;37205;51.434;6.756;2024-01-10T03:11:41;12.25;;;6.55;;
50803;SDS011;37205;51.434;6.756;2024-01-10T03:14:10;14.00;;;7.38;;
50803;SDS011;37205;51.434;6.756;2024-01-10T03:16:36;12.25;;;6.18;;
50803;SDS011;37205;51.434;6.756;2024-01-10T03:19:02;14.63;;;7.72;;
50803;SDS011;37205;51.434;6.756;2024-01-10T03:21:28;14.82;;;7.70;;
50803;SDS011;37205;51.434;6.756;2024-01-10T03:23:55;13.15;;;6.97;;
50803;SDS011;37205;51.434;6.756;2024-01-10T03:26:21;12.27;;;7.45;;
50803;SDS011;37205;51.434;6.756;2024-01-10T03:28:47;13.52;;;7.15;;
50803;SDS011;37205;51.434;6.756;2024-01-10T03:31:12;13.88;;;7.32;;
50803;SDS011;37205;51.434;6.756;2024-01-10T03:33:38;14.40;;;7.25;;
50803;SDS011;37205;51.434;6.756;2024-01-10T03:36:03;15.73;;;7.05;;
50803;SDS011;37205;51.434;6.756;2024-01-10T03:38:29;14.25;;;6.85;;
50803;SDS011;37205;51.434;6.756;2024-01-10T03:40:55;13.07;;;6.68;;
50803;SDS011;37205;51.434;6.756;2024-01-10T03:43:20;14.57;;;7.53;;
50803;SDS011;37205;51.434;6.756;2024-01-10T03:45:46;12.35;;;6.80;;
50803;SDS011;37205;51.434;6.756;2024-01-10T03:48:11;12.88;;;7.03;;
50803;SDS011;37205;51.434;6.756;2024-01-10T03:50:37;14.13;;;7.50;;
50803;SDS011;37205;51.434;6.756;2024-01-10T03:53:02;12.73;;;7.43;;
50803;SDS011;37205;51.434;6.756;2024-01-10T03:55:28;14.48;;;7.35;;
50803;SDS011;37205;51.434;6.756;2024-01-10T03:57:54;12.70;;;7.53;;
50803;SDS011;37205;51.434;6.756;2024-01-10T04:00:21;13.20;;;7.28;;
50803;SDS011;37205;51.434;6.756;2024-01-10T04:02:46;14.57;;;7.90;;
50803;SDS011;37205;51.434;6.756;2024-01-10T04:05:12;13.57;;;7.28;;
50803;SDS011;37205;51.434;6.756;2024-01-10T04:07:41;18.38;;;7.72;;
50803;SDS011;37205;51.434;6.756;2024-01-10T04:10:07;13.05;;;7.43;;
50803;SDS011;37205;51.434;6.756;2024-01-10T04:12:35;13.82;;;7.38;;
50803;SDS011;37205;51.434;6.756;2024-01-10T04:15:01;14.68;;;6.90;;
50803;SDS011;37205;51.434;6.756;2024-01-10T04:17:27;14.85;;;7.32;;
50803;SDS011;37205;51.434;6.756;2024-01-10T04:19:52;19.98;;;7.82;;
50803;SDS011;37205;51.434;6.756;2024-01-10T04:22:18;15.35;;;8.02;;
50803;SDS011;37205;51.434;6.756;2024-01-10T04:24:43;13.77;;;7.20;;
50803;SDS011;37205;51.434;6.756;2024-01-10T04:27:09;14.85;;;7.57;;
50803;SDS011;37205;51.434;6.756;2024-01-10T04:29:34;11.93;;;7.13;;
50803;SDS011;37205;51.434;6.756;2024-01-10T04:32:00;15.45;;;8.50;;
50803;SDS011;37205;51.434;6.756;2024-01-10T04:34:25;13.68;;;7.60;;
50803;SDS011;37205;51.434;6.756;2024-01-10T04:36:51;14.60;;;8.23;;
50803;SDS011;37205;51.434;6.756;2024-01-10T04:39:17;14.68;;;7.50;;
50803;SDS011;37205;51.434;6.756;2024-01-10T04:41:43;13.20;;;8.00;;
50803;SDS011;37205;51.434;6.756;2024-01-10T04:44:09;17.65;;;8.60;;
50803;SDS011;37205;51.434;6.756;2024-01-10T04:46:35;13.80;;;8.13;;
50803;SDS011;37205;51.434;6.756;2024-01-10T04:49:00;16.05;;;8.35;;
50803;SDS011;37205;51.434;6.756;2024-01-10T04:51:26;13.68;;;7.93;;
50803;SDS011;37205;51.434;6.756;2024-01-10T04:53:51;15.55;;;7.78;;
50803;SDS011;37205;51.434;6.756;2024-01-10T04:56:17;14.27;;;7.93;;
50803;SDS011;37205;51.434;6.756;2024-01-10T04:58:43;14.57;;;7.65;;
50803;SDS011;37205;51.434;6.756;2024-01-10T05:01:08;14.70;;;7.50;;
50803;SDS011;37205;51.434;6.756;2024-01-10T05:03:34;15.10;;;7.97;;
50803;SDS011;37205;51.434;6.756;2024-01-10T05:05:59;13.65;;;8.15;;
50803;SDS011;37205;51.434;6.756;2024-01-10T05:08:25;15.98;;;8.20;;
50803;SDS011;37205;51.434;6.756;2024-01-10T05:10:51;13.80;;;7.45;;
50803;SDS011;37205;51.434;6.756;2024-01-10T05:13:16;16.23;;;7.75;;
50803;SDS011;37205;51.434;6.756;2024-01-10T05:15:42;15.48;;;8.10;;
50803;SDS011;37205;51.434;6.756;2024-01-10T05:18:07;16.60;;;8.40;;
50803;SDS011;37205;51.434;6.756;2024-01-10T05:20:33;15.10;;;7.85;;
50803;SDS011;37205;51.434;6.756;2024-01-10T05:22:59;16.90;;;7.75;;
50803;SDS011;37205;51.434;6.756;2024-01-10T05:25:26;13.60;;;7.22;;
50803;SDS011;37205;51.434;6.756;2024-01-10T05:27:52;15.27;;;8.07;;
50803;SDS011;37205;51.434;6.756;2024-01-10T05:30:17;13.90;;;8.10;;
50803;SDS011;37205;51.434;6.756;2024-01-10T05:32:43;15.70;;;7.70;;
50803;SDS011;37205;51.434;6.756;2024-01-10T05:35:09;16.88;;;7.57;;
50803;SDS011;37205;51.434;6.756;2024-01-10T05:37:35;14.07;;;7.43;;
50803;SDS011;37205;51.434;6.756;2024-01-10T05:40:01;14.07;;;6.93;;
50803;SDS011;37205;51.434;6.756;2024-01-10T05:42:27;15.65;;;7.45;;
50803;SDS011;37205;51.434;6.756;2024-01-10T05:44:52;13.80;;;7.75;;
50803;SDS011;37205;51.434;6.756;2024-01-10T05:47:18;14.45;;;8.27;;
50803;SDS011;37205;51.434;6.756;2024-01-10T05:49:43;15.60;;;8.35;;
50803;SDS011;37205;51.434;6.756;2024-01-10T05:52:09;14.90;;;7.47;;
50803;SDS011;37205;51.434;6.756;2024-01-10T05:54:35;12.75;;;7.35;;
50803;SDS011;37205;51.434;6.756;2024-01-10T05:57:00;15.23;;;7.80;;
50803;SDS011;37205;51.434;6.756;2024-01-10T05:59:27;15.55;;;7.30;;
50803;SDS011;37205;51.434;6.756;2024-01-10T06:01:52;17.20;;;7.82;;
50803;SDS011;37205;51.434;6.756;2024-01-10T06:04:18;16.17;;;8.20;;
50803;SDS011;37205;51.434;6.756;2024-01-10T06:06:43;13.52;;;7.65;;
50803;SDS011;37205;51.434;6.756;2024-01-10T06:09:10;14.25;;;7.45;;
50803;SDS011;37205;51.434;6.756;2024-01-10T06:11:40;15.60;;;8.25;;
50803;SDS011;37205;51.434;6.756;2024-01-10T06:14:08;14.73;;;8.23;;
50803;SDS011;37205;51.434;6.756;2024-01-10T06:16:34;16.73;;;8.20;;
50803;SDS011;37205;51.434;6.756;2024-01-10T06:19:00;15.40;;;8.15;;
50803;SDS011;37205;51.434;6.756;2024-01-10T06:21:25;13.23;;;7.95;;
50803;SDS011;37205;51.434;6.756;2024-01-10T06:23:51;16.92;;;8.63;;
50803;SDS011;37205;51.434;6.756;2024-01-10T06:26:16;14.18;;;7.40;;
50803;SDS011;37205;51.434;6.756;2024-01-10T06:28:42;15.45;;;8.18;;
50803;SDS011;37205;51.434;6.756;2024-01-10T06:31:08;16.38;;;8.38;;
50803;SDS011;37205;51.434;6.756;2024-01-10T06:33:33;16.95;;;7.95;;
50803;SDS011;37205;51.434;6.756;2024-01-10T06:35:59;15.05;;;7.45;;
50803;SDS011;37205;51.434;6.756;2024-01-10T06:38:24;16.25;;;7.90;;
50803;SDS011;37205;51.434;6.756;2024-01-10T06:40:50;16.95;;;8.85;;
50803;SDS011;37205;51.434;6.756;2024-01-10T06:43:15;15.57;;;7.90;;
50803;SDS011;37205;51.434;6.756;2024-01-10T06:45:41;14.77;;;7.80;;
50803;SDS011;37205;51.434;6.756;2024-01-10T06:48:07;14.98;;;7.97;;
50803;SDS011;37205;51.434;6.756;2024-01-10T06:50:33;15.00;;;8.30;;
50803;SDS011;37205;51.434;6.756;2024-01-10T06:52:58;16.35;;;8.57;;
50803;SDS011;37205;51.434;6.756;2024-01-10T06:55:24;13.65;;;7.90;;
50803;SDS011;37205;51.434;6.756;2024-01-10T06:57:51;16.05;;;7.80;;
50803;SDS011;37205;51.434;6.756;2024-01-10T07:00:18;15.57;;;8.05;;
50803;SDS011;37205;51.434;6.756;2024-01-10T07:02:45;20.13;;;8.70;;
50803;SDS011;37205;51.434;6.756;2024-01-10T07:05:11;17.38;;;8.90;;
50803;SDS011;37205;51.434;6.756;2024-01-10T07:07:37;19.60;;;8.60;;
50803;SDS011;37205;51.434;6.756;2024-01-10T07:10:02;19.42;;;8.73;;
50803;SDS011;37205;51.434;6.756;2024-01-10T07:12:31;15.30;;;8.43;;
50803;SDS011;37205;51.434;6.756;2024-01-10T07:15:00;17.77;;;9.40;;
50803;SDS011;37205;51.434;6.756;2024-01-10T07:17:28;16.13;;;8.30;;
50803;SDS011;37205;51.434;6.756;2024-01-10T07:19:53;17.50;;;8.23;;
50803;SDS011;37205;51.434;6.756;2024-01-10T07:22:21;15.25;;;8.60;;
50803;SDS011;37205;51.434;6.756;2024-01-10T07:24:47;16.38;;;8.43;;
50803;SDS011;37205;51.434;6.756;2024-01-10T07:27:13;16.17;;;8.52;;
50803;SDS011;37205;51.434;6.756;2024-01-10T07:29:39;14.48;;;8.45;;
50803;SDS011;37205;51.434;6.756;2024-01-10T07:32:07;16.27;;;8.20;;
50803;SDS011;37205;51.434;6.756;2024-01-10T07:34:36;15.50;;;8.88;;
50803;SDS011;37205;51.434;6.756;2024-01-10T07:37:02;17.88;;;9.10;;
50803;SDS011;37205;51.434;6.756;2024-01-10T07:39:28;16.73;;;8.30;;
50803;SDS011;37205;51.434;6.756;2024-01-10T07:41:54;17.00;;;9.18;;
50803;SDS011;37205;51.434;6.756;2024-01-10T07:44:19;17.88;;;8.02;;
50803;SDS011;37205;51.434;6.756;2024-01-10T07:46:45;18.00;;;8.88;;
50803;SDS011;37205;51.434;6.756;2024-01-10T07:49:10;19.98;;;9.32;;
50803;SDS011;37205;51.434;6.756;2024-01-10T07:51:36;17.42;;;9.25;;
50803;SDS011;37205;51.434;6.756;2024-01-10T07:54:02;17.30;;;8.57;;
50803;SDS011;37205;51.434;6.756;2024-01-10T07:56:27;18.08;;;9.05;;
50803;SDS011;37205;51.434;6.756;2024-01-10T07:58:53;19.67;;;9.35;;
50803;SDS011;37205;51.434;6.756;2024-01-10T08:01:18;21.40;;;9.60;;
50803;SDS011;37205;51.434;6.756;2024-01-10T08:03:44;16.20;;;9.00;;
50803;SDS011;37205;51.434;6.756;2024-01-10T08:06:09;17.10;;;8.82;;
50803;SDS011;37205;51.434;6.756;2024-01-10T08:08:38;20.33;;;9.93;;
50803;SDS011;37205;51.434;6.756;2024-01-10T08:11:04;19.10;;;9.90;;
50803;SDS011;37205;51.434;6.756;2024-01-10T08:13:30;15.95;;;8.63;;
50803;SDS011;37205;51.434;6.756;2024-01-10T08:15:56;18.52;;;10.07;;
50803;SDS011;37205;51.434;6.756;2024-01-10T08:18:21;20.17;;;9.95;;
50803;SDS011;37205;51.434;6.756;2024-01-10T08:20:48;17.92;;;9.38;;
50803;SDS011;37205;51.434;6.756;2024-01-10T08:23:13;14.45;;;8.40;;
50803;SDS011;37205;51.434;6.756;2024-01-10T08:25:39;19.58;;;9.20;;
50803;SDS011;37205;51.434;6.756;2024-01-10T08:28:05;15.85;;;9.05;;
50803;SDS011;37205;51.434;6.756;2024-01-10T08:30:31;19.77;;;9.85;;
50803;SDS011;37205;51.434;6.756;2024-01-10T08:32:57;18.52;;;9.80;;
50803;SDS011;37205;51.434;6.756;2024-01-10T08:35:24;21.33;;;10.10;;
50803;SDS011;37205;51.434;6.756;2024-01-10T08:37:49;21.20;;;11.00;;
50803;SDS011;37205;51.434;6.756;2024-01-10T08:40:15;19.30;;;10.50;;
50803;SDS011;37205;51.434;6.756;2024-01-10T08:42:42;25.08;;;9.90;;
50803;SDS011;37205;51.434;6.756;2024-01-10T08:45:07;21.88;;;10.48;;
50803;SDS011;37205;51.434;6.756;2024-01-10T08:47:35;19.33;;;10.68;;
50803;SDS011;37205;51.434;6.756;2024-01-10T08:50:04;18.30;;;10.23;;
50803;SDS011;37205;51.434;6.756;2024-01-10T08:52:30;19.23;;;9.68;;
50803;SDS011;37205;51.434;6.756;2024-01-10T08:54:56;23.55;;;10.48;;
50803;SDS011;37205;51.434;6.756;2024-01-10T08:57:22;21.25;;;10.52;;
50803;SDS011;37205;51.434;6.756;2024-01-10T08:59:47;18.58;;;10.40;;
50803;SDS011;37205;51.434;6.756;2024-01-10T09:02:13;22.35;;;10.77;;
50803;SDS011;37205;51.434;6.756;2024-01-10T09:04:39;17.23;;;10.60;;
50803;SDS011;37205;51.434;6.756;2024-01-10T09:07:04;20.88;;;10.52;;
50803;SDS011;37205;51.434;6.756;2024-01-10T09:09:30;22.95;;;11.00;;
50803;SDS011;37205;51.434;6.756;2024-01-10T09:11:56;23.27;;;11.23;;
50803;SDS011;37205;51.434;6.756;2024-01-10T09:14:21;22.95;;;10.48;;
50803;SDS011;37205;51.434;6.756;2024-01-10T09:16:47;21.90;;;10.98;;
50803;SDS011;37205;51.434;6.756;2024-01-10T09:19:12;21.85;;;12.07;;
50803;SDS011;37205;51.434;6.756;2024-01-10T09:21:38;23.05;;;10.50;;
50803;SDS011;37205;51.434;6.756;2024-01-10T09:24:03;20.55;;;11.68;;
50803;SDS011;37205;51.434;6.756;2024-01-10T09:26:33;20.00;;;11.40;;
50803;SDS011;37205;51.434;6.756;2024-01-10T09:28:58;20.25;;;11.02;;
50803;SDS011;37205;51.434;6.756;2024-01-10T09:31:24;23.00;;;11.65;;
50803;SDS011;37205;51.434;6.756;2024-01-10T09:33:49;26.40;;;12.02;;
50803;SDS011;37205;51.434;6.756;2024-01-10T09:36:15;21.00;;;11.63;;
50803;SDS011;37205;51.434;6.756;2024-01-10T09:38:41;19.77;;;11.57;;
50803;SDS011;37205;51.434;6.756;2024-01-10T09:41:07;23.13;;;11.63;;
50803;SDS011;37205;51.434;6.756;2024-01-10T09:43:32;20.08;;;11.30;;
50803;SDS011;37205;51.434;6.756;2024-01-10T09:46:01;23.40;;;11.60;;
50803;SDS011;37205;51.434;6.756;2024-01-10T09:48:30;23.73;;;12.63;;
50803;SDS011;37205;51.434;6.756;2024-01-10T09:50:56;20.70;;;11.68;;
50803;SDS011;37205;51.434;6.756;2024-01-10T09:53:22;27.05;;;12.82;;
50803;SDS011;37205;51.434;6.756;2024-01-10T09:55:49;26.40;;;12.73;;
50803;SDS011;37205;51.434;6.756;2024-01-10T09:58:15;23.00;;;12.20;;
50803;SDS011;37205;51.434;6.756;2024-01-10T10:00:41;29.02;;;12.93;;
50803;SDS011;37205;51.434;6.756;2024-01-10T10:03:07;25.58;;;13.27;;
50803;SDS011;37205;51.434;6.756;2024-01-10T10:05:36;23.67;;;12.73;;
50803;SDS011;37205;51.434;6.756;2024-01-10T10:08:03;27.70;;;13.45;;
50803;SDS011;37205;51.434;6.756;2024-01-10T10:10:31;22.35;;;12.55;;
50803;SDS011;37205;51.434;6.756;2024-01-10T10:12:59;24.73;;;12.50;;
50803;SDS011;37205;51.434;6.756;2024-01-10T10:15:25;23.45;;;12.80;;
50803;SDS011;37205;51.434;6.756;2024-01-10T10:17:53;25.23;;;13.18;;
50803;SDS011;37205;51.434;6.756;2024-01-10T10:20:26;24.88;;;14.02;;
50803;SDS011;37205;51.434;6.756;2024-01-10T10:23:00;26.63;;;12.93;;
50803;SDS011;37205;51.434;6.756;2024-01-10T10:25:29;24.83;;;13.43;;
50803;SDS011;37205;51.434;6.756;2024-01-10T10:27:55;29.95;;;14.35;;
50803;SDS011;37205;51.434;6.756;2024-01-10T10:30:21;25.48;;;12.77;;
50803;SDS011;37205;51.434;6.756;2024-01-10T10:32:47;26.30;;;13.55;;
50803;SDS011;37205;51.434;6.756;2024-01-10T10:35:12;28.92;;;13.60;;
50803;SDS011;37205;51.434;6.756;2024-01-10T10:37:38;27.52;;;14.13;;
50803;SDS011;37205;51.434;6.756;2024-01-10T10:40:04;26.33;;;13.85;;
50803;SDS011;37205;51.434;6.756;2024-01-10T10:42:31;28.02;;;14.18;;
50803;SDS011;37205;51.434;6.756;2024-01-10T10:44:57;27.17;;;14.25;;
50803;SDS011;37205;51.434;6.756;2024-01-10T10:47:29;28.10;;;14.18;;
50803;SDS011;37205;51.434;6.756;2024-01-10T10:50:00;28.10;;;15.20;;
50803;SDS011;37205;51.434;6.756;2024-01-10T10:52:29;23.55;;;13.93;;
50803;SDS011;37205;51.434;6.756;2024-01-10T10:54:55;29.17;;;14.25;;
50803;SDS011;37205;51.434;6.756;2024-01-10T10:57:24;25.05;;;14.00;;
50803;SDS011;37205;51.434;6.756;2024-01-10T10:59:51;26.98;;;14.00;;
50803;SDS011;37205;51.434;6.756;2024-01-10T11:02:20;26.15;;;13.50;;
50803;SDS011;37205;51.434;6.756;2024-01-10T11:04:49;25.23;;;14.00;;
50803;SDS011;37205;51.434;6.756;2024-01-10T11:07:16;26.95;;;14.40;;
50803;SDS011;37205;51.434;6.756;2024-01-10T11:09:43;24.88;;;13.65;;
50803;SDS011;37205;51.434;6.756;2024-01-10T11:12:23;24.38;;;14.35;;
50803;SDS011;37205;51.434;6.756;2024-01-10T11:15:09;25.77;;;13.63;;
50803;SDS011;37205;51.434;6.756;2024-01-10T11:20:56;29.10;;;14.45;;
50803;SDS011;37205;51.434;6.756;2024-01-10T11:23:46;26.73;;;14.30;;
50803;SDS011;37205;51.434;6.756;2024-01-10T11:26:14;24.45;;;14.35;;
50803;SDS011;37205;51.434;6.756;2024-01-10T11:28:40;29.20;;;15.18;;
50803;SDS011;37205;51.434;6.756;2024-01-10T11:31:06;26.25;;;15.20;;
50803;SDS011;37205;51.434;6.756;2024-01-10T11:33:39;29.55;;;15.27;;
50803;SDS011;37205;51.434;6.756;2024-01-10T11:38:38;28.45;;;15.30;;
50803;SDS011;37205;51.434;6.756;2024-01-10T11:41:20;25.55;;;14.27;;
50803;SDS011;37205;51.434;6.756;2024-01-10T11:46:35;32.63;;;15.32;;
50803;SDS011;37205;51.434;6.756;2024-01-10T11:49:02;28.27;;;15.23;;
50803;SDS011;37205;51.434;6.756;2024-01-10T11:51:29;27.38;;;14.52;;
50803;SDS011;37205;51.434;6.756;2024-01-10T11:53:55;26.73;;;14.65;;
50803;SDS011;37205;51.434;6.756;2024-01-10T11:56:22;25.58;;;13.77;;
50803;SDS011;37205;51.434;6.756;2024-01-10T12:01:33;23.40;;;13.73;;
50803;SDS011;37205;51.434;6.756;2024-01-10T12:03:59;28.40;;;14.93;;
50803;SDS011;37205;51.434;6.756;2024-01-10T12:06:25;26.45;;;15.30;;
50803;SDS011;37205;51.434;6.756;2024-01-10T12:08:51;32.95;;;15.98;;
50803;SDS011;37205;51.434;6.756;2024-01-10T12:11:17;26.55;;;15.00;;
50803;SDS011;37205;51.434;6.756;2024-01-10T12:13:43;26.35;;;15.13;;
50803;SDS011;37205;51.434;6.756;2024-01-10T12:16:09;27.63;;;15.30;;
50803;SDS011;37205;51.434;6.756;2024-01-10T12:18:37;24.73;;;15.43;;
50803;SDS011;37205;51.434;6.756;2024-01-10T12:21:03;30.88;;;15.27;;
50803;SDS011;37205;51.434;6.756;2024-01-10T12:23:29;28.92;;;15.00;;
50803;SDS011;37205;51.434;6.756;2024-01-10T12:25:56;25.35;;;14.43;;
50803;SDS011;37205;51.434;6.756;2024-01-10T12:28:22;29.00;;;15.55;;
50803;SDS011;37205;51.434;6.756;2024-01-10T12:30:48;28.17;;;15.25;;
50803;SDS011;37205;51.434;6.756;2024-01-10T12:33:13;27.50;;;15.25;;
50803;SDS011;37205;51.434;6.756;2024-01-10T12:35:39;31.83;;;15.93;;
50803;SDS011;37205;51.434;6.756;2024-01-10T12:38:07;26.92;;;15.57;;
50803;SDS011;37205;51.434;6.756;2024-01-10T12:40:36;29.00;;;15.00;;
50803;SDS011;37205;51.434;6.756;2024-01-10T12:43:04;28.17;;;15.25;;
50803;SDS011;37205;51.434;6.756;2024-01-10T12:45:31;29.50;;;14.27;;
50803;SDS011;37205;51.434;6.756;2024-01-10T12:47:57;26.50;;;15.27;;
50803;SDS011;37205;51.434;6.756;2024-01-10T12:50:23;26.40;;;14.93;;
50803;SDS011;37205;51.434;6.756;2024-01-10T12:52:50;29.75;;;15.68;;
50803;SDS011;37205;51.434;6.756;2024-01-10T12:55:16;30.88;;;14.95;;
50803;SDS011;37205;51.434;6.756;2024-01-10T12:57:42;24.75;;;15.30;;
50803;SDS011;37205;51.434;6.756;2024-01-10T13:00:08;26.25;;;14.35;;
50803;SDS011;37205;51.434;6.756;2024-01-10T13:02:36;26.80;;;14.90;;
50803;SDS011;37205;51.434;6.756;2024-01-10T13:05:05;25.40;;;14.63;;
50803;SDS011;37205;51.434;6.756;2024-01-10T13:07:34;26.15;;;14.65;;
50803;SDS011;37205;51.434;6.756;2024-01-10T13:10:02;23.95;;;13.23;;
50803;SDS011;37205;51.434;6.756;2024-01-10T13:12:28;29.20;;;14.35;;
50803;SDS011;37205;51.434;6.756;2024-01-10T13:14:53;26.35;;;14.82;;
50803;SDS011;37205;51.434;6.756;2024-01-10T13:17:19;27.13;;;14.80;;
50803;SDS011;37205;51.434;6.756;2024-01-10T13:19:45;28.80;;;15.60;;
50803;SDS011;37205;51.434;6.756;2024-01-10T13:22:13;24.65;;;14.02;;
50803;SDS011;37205;51.434;6.756;2024-01-10T13:24:42;28.92;;;14.95;;
50803;SDS011;37205;51.434;6.756;2024-01-10T13:27:08;30.63;;;15.18;;
50803;SDS011;37205;51.434;6.756;2024-01-10T13:29:35;25.52;;;14.35;;
50803;SDS011;37205;51.434;6.756;2024-01-10T13:32:02;23.63;;;14.23;;
50803;SDS011;37205;51.434;6.756;2024-01-10T13:34:31;25.55;;;13.95;;
50803;SDS011;37205;51.434;6.756;2024-01-10T13:37:00;27.98;;;15.00;;
50803;SDS011;37205;51.434;6.756;2024-01-10T13:39:27;26.35;;;14.43;;
50803;SDS011;37205;51.434;6.756;2024-01-10T13:41:52;28.23;;;15.95;;
50803;SDS011;37205;51.434;6.756;2024-01-10T13:44:19;28.95;;;15.85;;
50803;SDS011;37205;51.434;6.756;2024-01-10T13:46:45;28.20;;;15.10;;
50803;SDS011;37205;51.434;6.756;2024-01-10T13:49:12;24.23;;;13.77;;
50803;SDS011;37205;51.434;6.756;2024-01-10T13:51:39;27.05;;;14.85;;
50803;SDS011;37205;51.434;6.756;2024-01-10T13:54:04;27.80;;;14.63;;
50803;SDS011;37205;51.434;6.756;2024-01-10T13:56:30;25.95;;;14.32;;
50803;SDS011;37205;51.434;6.756;2024-01-10T13:58:57;27.77;;;14.70;;
50803;SDS011;37205;51.434;6.756;2024-01-10T14:01:22;26.35;;;14.38;;
50803;SDS011;37205;51.434;6.756;2024-01-10T14:03:48;28.27;;;15.05;;
50803;SDS011;37205;51.434;6.756;2024-01-10T14:06:13;26.25;;;14.85;;
50803;SDS011;37205;51.434;6.756;2024-01-10T14:08:39;29.52;;;15.63;;
50803;SDS011;37205;51.434;6.756;2024-01-10T14:11:06;31.48;;;16.00;;
50803;SDS011;37205;51.434;6.756;2024-01-10T14:13:32;29.10;;;15.95;;
50803;SDS011;37205;51.434;6.756;2024-01-10T14:15:57;25.52;;;15.35;;
50803;SDS011;37205;51.434;6.756;2024-01-10T14:18:23;23.80;;;13.90;;
50803;SDS011;37205;51.434;6.756;2024-01-10T14:20:48;25.50;;;14.60;;
50803;SDS011;37205;51.434;6.756;2024-01-10T14:23:14;26.52;;;14.65;;
50803;SDS011;37205;51.434;6.756;2024-01-10T14:25:42;29.02;;;16.30;;
50803;SDS011;37205;51.434;6.756;2024-01-10T14:28:07;38.70;;;19.38;;
50803;SDS011;37205;51.434;6.756;2024-01-10T14:30:33;36.63;;;20.23;;
50803;SDS011;37205;51.434;6.756;2024-01-10T14:32:59;31.27;;;17.52;;
50803;SDS011;37205;51.434;6.756;2024-01-10T14:35:24;27.27;;;15.60;;